Nearby METAR Reports

 

KHCR - Heber/Russ Mcdon, Utah, USA
Distance from station: SSW 18mi, 29km
Updated: Mon, 21-Sep-2020 7:35am MDT
Clear
Clear
 Wind from calm
Wind: Calm
Temperature: 36°F , 2°C
Dew Point: 32°F , 0°C
Humidity: 87%
Barometer: 30.24 inHg , 1024 hPa
Clouds: Clear
Visibility: 10 miles , 16 km
2020/09/21 13:35 KHCR 211335Z AUTO 00000KT 10SM CLR 02/00 A3024 RMK AO2
KSLC - Salt Lake City, Utah, USA
Distance from station: W 35mi, 57km
Updated: Mon, 21-Sep-2020 6:54am MDT
Clear
Clear
 Wind from ESE
Wind: ESE 6 mph , 9 km/h
Temperature: 55°F , 13°C
Dew Point: 41°F , 5°C
Humidity: 59%
Barometer: 30.12 inHg , 1020 hPa
Clouds: Clear
Visibility: 10 miles , 16 km
2020/09/21 12:54 KSLC 211254Z 12005KT 10SM CLR 13/05 A3012 RMK AO2 SLP162 FU ALFT ALQDS T01280050
 
KU42 - Salt Lake Muni, Utah, USA
Distance from station: WSW 37mi, 59km
Updated: Mon, 21-Sep-2020 7:35am MDT

 Wind from SSW
Wind: SSW 7 mph , 11 km/h
Temperature: 57°F , 14°C
Dew Point: 41°F , 5°C
Humidity: 55%
Barometer: 30.16 inHg , 1021.3 hPa
Visibility: 10 miles , 16 km
2020/09/21 13:35 KU42 211335Z AUTO 20006KT 10SM 14/05 A3016 RMK AO1 T01440051
KEVW - Evanston, Wyoming, USA
Distance from station: NNE 40mi, 64km
Updated: Mon, 21-Sep-2020 6:53am MDT
Clear
Clear
 Wind from N
Wind: N 5 mph , 7 km/h
Temperature: 45°F , 7°C
Wind Chill: 42°F , 6°C
Dew Point: 27°F , -3°C
Humidity: 49%
Barometer: 30.29 inHg , 1025.7 hPa
Clouds: Clear
Visibility: 10 miles , 16 km
2020/09/21 12:53 KEVW 211253Z AUTO 36004KT 10SM CLR 07/M03 A3029 RMK AO2 SLP192 T00721033
 
KPVU - Provo Muni, Utah, USA
Distance from station: SSW 41mi, 67km
Updated: Mon, 21-Sep-2020 6:56am MDT
Clear
Clear
 Wind from E
Wind: E 7 mph , 11 km/h
Temperature: 50°F , 10°C
Wind Chill: 47°F , 8°C
Dew Point: 37°F , 3°C
Humidity: 62%
Barometer: 30.17 inHg , 1021.7 hPa
Clouds: Clear
Visibility: 10 miles , 16 km
2020/09/21 12:56 KPVU 211256Z AUTO 10006KT 10SM CLR 10/03 A3017 RMK AO2 SLP183 T01000028
KHIF - Hill Afb/Ogden, Utah, USA
Distance from station: NW 45mi, 72km
Updated: Mon, 21-Sep-2020 6:58am MDT
Clear
Clear
 Wind from ESE
Wind: ESE 16 mph , 26 km/h
Temperature: 52°F , 11°C
Dew Point: 34°F , 1°C
Humidity: 50%
Barometer: 30.15 inHg , 1021 hPa
Clouds: Clear
Visibility: 10 miles , 16 km
2020/09/21 12:58 KHIF 211258Z AUTO 11014KT 10SM CLR 11/01 A3015 RMK AO2 SLP170 T01130012
 
KOGD - Ogden, Utah, USA
Distance from station: NW 50mi, 81km
Updated: Mon, 21-Sep-2020 6:53am MDT
Clear
Clear
 Wind from varies
Wind: varies 3 mph , 6 km/h
Temperature: 55°F , 13°C
Dew Point: 36°F , 2°C
Humidity: 47%
Barometer: 30.14 inHg , 1020.7 hPa
Clouds: Clear
Visibility: 10 miles , 16 km
2020/09/21 12:53 KOGD 211253Z VRB03KT 10SM CLR 13/02 A3014 RMK AO2 SLP161 T01330017